sensor_id;sensor_type;location;lat;lon;timestamp;temperature;humidity
17879;DHT22;9065;51.050;13.758;2023-02-28T00:00:37;3.00;99.90
17879;DHT22;9065;51.050;13.758;2023-02-28T00:03:04;3.00;99.90
17879;DHT22;9065;51.050;13.758;2023-02-28T00:05:31;3.00;99.90
17879;DHT22;9065;51.050;13.758;2023-02-28T00:07:59;3.10;99.90
17879;DHT22;9065;51.050;13.758;2023-02-28T00:10:28;3.10;99.90
17879;DHT22;9065;51.050;13.758;2023-02-28T00:12:59;3.00;99.90
17879;DHT22;9065;51.050;13.758;2023-02-28T00:15:27;3.00;99.90
17879;DHT22;9065;51.050;13.758;2023-02-28T00:17:54;3.00;99.90
17879;DHT22;9065;51.050;13.758;2023-02-28T00:20:21;3.00;99.90
17879;DHT22;9065;51.050;13.758;2023-02-28T00:22:49;3.00;99.90
17879;DHT22;9065;51.050;13.758;2023-02-28T00:25:20;2.90;99.90
17879;DHT22;9065;51.050;13.758;2023-02-28T00:27:47;2.90;99.90
17879;DHT22;9065;51.050;13.758;2023-02-28T00:30:16;2.90;99.90
17879;DHT22;9065;51.050;13.758;2023-02-28T00:32:44;2.90;99.90
17879;DHT22;9065;51.050;13.758;2023-02-28T00:35:11;2.90;99.90
17879;DHT22;9065;51.050;13.758;2023-02-28T00:37:39;2.80;99.90
17879;DHT22;9065;51.050;13.758;2023-02-28T00:40:06;2.70;99.90
17879;DHT22;9065;51.050;13.758;2023-02-28T00:42:36;2.70;99.90
17879;DHT22;9065;51.050;13.758;2023-02-28T00:45:03;2.90;99.90
17879;DHT22;9065;51.050;13.758;2023-02-28T00:47:30;2.80;99.90
17879;DHT22;9065;51.050;13.758;2023-02-28T00:49:57;2.70;99.90
17879;DHT22;9065;51.050;13.758;2023-02-28T00:52:24;2.80;99.90
17879;DHT22;9065;51.050;13.758;2023-02-28T00:54:51;2.80;99.90
17879;DHT22;9065;51.050;13.758;2023-02-28T00:57:18;2.80;99.90
17879;DHT22;9065;51.050;13.758;2023-02-28T00:59:46;2.80;99.90
17879;DHT22;9065;51.050;13.758;2023-02-28T01:02:13;2.80;99.90
17879;DHT22;9065;51.050;13.758;2023-02-28T01:04:40;2.70;99.90
17879;DHT22;9065;51.050;13.758;2023-02-28T01:07:09;2.70;99.90
17879;DHT22;9065;51.050;13.758;2023-02-28T01:09:36;2.90;99.90
17879;DHT22;9065;51.050;13.758;2023-02-28T01:12:03;2.90;99.90
17879;DHT22;9065;51.050;13.758;2023-02-28T01:14:30;2.80;99.90
17879;DHT22;9065;51.050;13.758;2023-02-28T01:16:58;2.90;99.90
17879;DHT22;9065;51.050;13.758;2023-02-28T01:19:25;2.90;99.90
17879;DHT22;9065;51.050;13.758;2023-02-28T01:21:51;2.90;99.90
17879;DHT22;9065;51.050;13.758;2023-02-28T01:24:18;2.90;99.90
17879;DHT22;9065;51.050;13.758;2023-02-28T01:26:45;2.90;99.90
17879;DHT22;9065;51.050;13.758;2023-02-28T01:29:12;2.80;99.90
17879;DHT22;9065;51.050;13.758;2023-02-28T01:31:39;2.70;99.90
17879;DHT22;9065;51.050;13.758;2023-02-28T01:34:07;2.50;99.90
17879;DHT22;9065;51.050;13.758;2023-02-28T01:36:34;2.50;99.90
17879;DHT22;9065;51.050;13.758;2023-02-28T01:39:02;2.40;99.90
17879;DHT22;9065;51.050;13.758;2023-02-28T01:41:31;2.40;99.90
17879;DHT22;9065;51.050;13.758;2023-02-28T01:44:01;2.40;99.90
17879;DHT22;9065;51.050;13.758;2023-02-28T01:46:30;2.40;99.90
17879;DHT22;9065;51.050;13.758;2023-02-28T01:49:02;2.50;99.90
17879;DHT22;9065;51.050;13.758;2023-02-28T01:51:36;2.60;99.90
17879;DHT22;9065;51.050;13.758;2023-02-28T01:54:07;2.80;99.90
17879;DHT22;9065;51.050;13.758;2023-02-28T01:56:42;2.90;99.90
17879;DHT22;9065;51.050;13.758;2023-02-28T01:59:12;2.90;99.90
17879;DHT22;9065;51.050;13.758;2023-02-28T02:01:39;3.00;99.90
17879;DHT22;9065;51.050;13.758;2023-02-28T02:04:06;3.00;99.90
17879;DHT22;9065;51.050;13.758;2023-02-28T02:06:37;2.90;99.90
17879;DHT22;9065;51.050;13.758;2023-02-28T02:09:05;3.00;99.90
17879;DHT22;9065;51.050;13.758;2023-02-28T02:11:33;2.90;99.90
17879;DHT22;9065;51.050;13.758;2023-02-28T02:14:22;2.90;99.90
17879;DHT22;9065;51.050;13.758;2023-02-28T02:17:07;2.80;99.90
17879;DHT22;9065;51.050;13.758;2023-02-28T02:20:00;2.90;99.90
17879;DHT22;9065;51.050;13.758;2023-02-28T02:23:04;2.90;99.90
17879;DHT22;9065;51.050;13.758;2023-02-28T02:25:40;3.00;99.90
17879;DHT22;9065;51.050;13.758;2023-02-28T02:31:27;2.80;99.90
17879;DHT22;9065;51.050;13.758;2023-02-28T02:34:22;2.70;99.90
17879;DHT22;9065;51.050;13.758;2023-02-28T02:36:53;2.70;99.90
17879;DHT22;9065;51.050;13.758;2023-02-28T02:39:30;2.80;99.90
17879;DHT22;9065;51.050;13.758;2023-02-28T02:42:00;2.80;99.90
17879;DHT22;9065;51.050;13.758;2023-02-28T02:44:33;2.70;99.90
17879;DHT22;9065;51.050;13.758;2023-02-28T02:47:05;2.70;99.90
17879;DHT22;9065;51.050;13.758;2023-02-28T02:49:37;2.80;99.90
17879;DHT22;9065;51.050;13.758;2023-02-28T02:52:07;2.80;99.90
17879;DHT22;9065;51.050;13.758;2023-02-28T02:54:36;2.90;99.90
17879;DHT22;9065;51.050;13.758;2023-02-28T02:57:06;2.70;99.90
17879;DHT22;9065;51.050;13.758;2023-02-28T02:59:35;2.50;99.90
17879;DHT22;9065;51.050;13.758;2023-02-28T03:02:07;2.30;99.90
17879;DHT22;9065;51.050;13.758;2023-02-28T03:04:40;2.30;99.90
17879;DHT22;9065;51.050;13.758;2023-02-28T03:07:08;2.20;99.90
17879;DHT22;9065;51.050;13.758;2023-02-28T03:09:35;2.20;99.90
17879;DHT22;9065;51.050;13.758;2023-02-28T03:12:03;2.30;99.90
17879;DHT22;9065;51.050;13.758;2023-02-28T03:14:41;2.40;99.90
17879;DHT22;9065;51.050;13.758;2023-02-28T03:17:31;2.50;99.90
17879;DHT22;9065;51.050;13.758;2023-02-28T03:20:12;2.50;99.90
17879;DHT22;9065;51.050;13.758;2023-02-28T03:23:01;2.50;99.90
17879;DHT22;9065;51.050;13.758;2023-02-28T03:25:35;2.50;99.90
17879;DHT22;9065;51.050;13.758;2023-02-28T03:28:09;2.40;99.90
17879;DHT22;9065;51.050;13.758;2023-02-28T03:30:47;2.40;99.90
17879;DHT22;9065;51.050;13.758;2023-02-28T03:33:21;2.40;99.90
17879;DHT22;9065;51.050;13.758;2023-02-28T03:35:53;2.30;99.90
17879;DHT22;9065;51.050;13.758;2023-02-28T03:38:24;2.30;99.90
17879;DHT22;9065;51.050;13.758;2023-02-28T03:41:01;2.30;99.90
17879;DHT22;9065;51.050;13.758;2023-02-28T03:43:34;2.20;99.90
17879;DHT22;9065;51.050;13.758;2023-02-28T03:46:07;2.20;99.90
17879;DHT22;9065;51.050;13.758;2023-02-28T03:48:39;2.20;99.90
17879;DHT22;9065;51.050;13.758;2023-02-28T03:51:11;2.10;99.90
17879;DHT22;9065;51.050;13.758;2023-02-28T03:53:44;2.00;99.90
17879;DHT22;9065;51.050;13.758;2023-02-28T03:56:16;2.00;99.90
17879;DHT22;9065;51.050;13.758;2023-02-28T03:58:48;2.00;99.90
17879;DHT22;9065;51.050;13.758;2023-02-28T04:01:20;2.00;99.90
17879;DHT22;9065;51.050;13.758;2023-02-28T04:03:49;1.90;99.90
17879;DHT22;9065;51.050;13.758;2023-02-28T04:06:20;1.90;99.90
17879;DHT22;9065;51.050;13.758;2023-02-28T04:08:48;1.90;99.90
17879;DHT22;9065;51.050;13.758;2023-02-28T04:11:21;1.90;99.90
17879;DHT22;9065;51.050;13.758;2023-02-28T04:13:48;1.80;99.90
17879;DHT22;9065;51.050;13.758;2023-02-28T04:16:15;1.80;99.90
17879;DHT22;9065;51.050;13.758;2023-02-28T04:18:42;1.80;99.90
17879;DHT22;9065;51.050;13.758;2023-02-28T04:21:10;1.80;99.90
17879;DHT22;9065;51.050;13.758;2023-02-28T04:23:39;1.70;99.90
17879;DHT22;9065;51.050;13.758;2023-02-28T04:26:06;1.70;99.90
17879;DHT22;9065;51.050;13.758;2023-02-28T04:28:33;1.60;99.90
17879;DHT22;9065;51.050;13.758;2023-02-28T04:31:02;1.60;99.90
17879;DHT22;9065;51.050;13.758;2023-02-28T04:33:30;1.60;99.90
17879;DHT22;9065;51.050;13.758;2023-02-28T04:35:59;1.50;99.90
17879;DHT22;9065;51.050;13.758;2023-02-28T04:38:26;1.50;99.90
17879;DHT22;9065;51.050;13.758;2023-02-28T04:40:56;1.40;99.90
17879;DHT22;9065;51.050;13.758;2023-02-28T04:43:23;1.40;99.90
17879;DHT22;9065;51.050;13.758;2023-02-28T04:45:49;1.30;99.90
17879;DHT22;9065;51.050;13.758;2023-02-28T04:48:16;1.30;99.90
17879;DHT22;9065;51.050;13.758;2023-02-28T04:50:43;1.30;99.90
17879;DHT22;9065;51.050;13.758;2023-02-28T04:53:09;1.20;99.90
17879;DHT22;9065;51.050;13.758;2023-02-28T04:55:36;1.20;99.90
17879;DHT22;9065;51.050;13.758;2023-02-28T04:58:06;1.20;99.90
17879;DHT22;9065;51.050;13.758;2023-02-28T05:00:33;1.20;99.90
17879;DHT22;9065;51.050;13.758;2023-02-28T05:03:00;1.00;99.90
17879;DHT22;9065;51.050;13.758;2023-02-28T05:05:27;1.00;99.90
17879;DHT22;9065;51.050;13.758;2023-02-28T05:07:54;1.10;99.90
17879;DHT22;9065;51.050;13.758;2023-02-28T05:10:21;1.20;99.90
17879;DHT22;9065;51.050;13.758;2023-02-28T05:12:48;1.20;99.90
17879;DHT22;9065;51.050;13.758;2023-02-28T05:15:17;1.10;99.90
17879;DHT22;9065;51.050;13.758;2023-02-28T05:17:44;1.10;99.90
17879;DHT22;9065;51.050;13.758;2023-02-28T05:20:12;0.90;99.90
17879;DHT22;9065;51.050;13.758;2023-02-28T05:22:39;0.80;99.90
17879;DHT22;9065;51.050;13.758;2023-02-28T05:25:08;0.90;99.90
17879;DHT22;9065;51.050;13.758;2023-02-28T05:27:37;0.90;99.90
17879;DHT22;9065;51.050;13.758;2023-02-28T05:30:05;0.80;99.90
17879;DHT22;9065;51.050;13.758;2023-02-28T05:32:34;0.80;99.90
17879;DHT22;9065;51.050;13.758;2023-02-28T05:35:01;0.80;99.90
17879;DHT22;9065;51.050;13.758;2023-02-28T05:37:27;0.80;99.90
17879;DHT22;9065;51.050;13.758;2023-02-28T05:39:54;0.70;99.90
17879;DHT22;9065;51.050;13.758;2023-02-28T05:42:21;0.70;99.90
17879;DHT22;9065;51.050;13.758;2023-02-28T05:44:48;0.80;99.90
17879;DHT22;9065;51.050;13.758;2023-02-28T05:47:14;0.80;99.90
17879;DHT22;9065;51.050;13.758;2023-02-28T05:49:43;0.70;99.90
17879;DHT22;9065;51.050;13.758;2023-02-28T05:52:10;0.80;99.90
17879;DHT22;9065;51.050;13.758;2023-02-28T05:54:37;0.80;99.90
17879;DHT22;9065;51.050;13.758;2023-02-28T05:57:03;0.70;99.90
17879;DHT22;9065;51.050;13.758;2023-02-28T05:59:30;0.70;99.90
17879;DHT22;9065;51.050;13.758;2023-02-28T06:01:57;0.70;99.90
17879;DHT22;9065;51.050;13.758;2023-02-28T06:04:24;0.60;99.90
17879;DHT22;9065;51.050;13.758;2023-02-28T06:06:52;0.70;99.90
17879;DHT22;9065;51.050;13.758;2023-02-28T06:09:19;0.70;99.90
17879;DHT22;9065;51.050;13.758;2023-02-28T06:11:46;0.70;99.90
17879;DHT22;9065;51.050;13.758;2023-02-28T06:14:15;0.80;99.90
17879;DHT22;9065;51.050;13.758;2023-02-28T06:16:43;0.70;99.90
17879;DHT22;9065;51.050;13.758;2023-02-28T06:19:10;0.80;99.90
17879;DHT22;9065;51.050;13.758;2023-02-28T06:21:38;0.80;99.90
17879;DHT22;9065;51.050;13.758;2023-02-28T06:24:07;0.70;99.90
17879;DHT22;9065;51.050;13.758;2023-02-28T06:26:39;0.80;99.90
17879;DHT22;9065;51.050;13.758;2023-02-28T06:29:09;0.80;99.90
17879;DHT22;9065;51.050;13.758;2023-02-28T06:31:36;0.90;99.90
17879;DHT22;9065;51.050;13.758;2023-02-28T06:34:07;0.90;99.90
17879;DHT22;9065;51.050;13.758;2023-02-28T06:36:40;0.80;99.90
17879;DHT22;9065;51.050;13.758;2023-02-28T06:42:20;0.90;99.90
17879;DHT22;9065;51.050;13.758;2023-02-28T06:44:54;0.90;99.90
17879;DHT22;9065;51.050;13.758;2023-02-28T06:47:21;0.90;99.90
17879;DHT22;9065;51.050;13.758;2023-02-28T06:49:51;0.90;99.90
17879;DHT22;9065;51.050;13.758;2023-02-28T06:52:28;1.00;99.90
17879;DHT22;9065;51.050;13.758;2023-02-28T06:54:56;1.00;99.90
17879;DHT22;9065;51.050;13.758;2023-02-28T06:57:31;1.10;99.90
17879;DHT22;9065;51.050;13.758;2023-02-28T06:59:59;1.30;99.90
17879;DHT22;9065;51.050;13.758;2023-02-28T07:02:29;1.50;99.90
17879;DHT22;9065;51.050;13.758;2023-02-28T07:04:58;1.70;99.90
17879;DHT22;9065;51.050;13.758;2023-02-28T07:07:30;1.90;99.90
17879;DHT22;9065;51.050;13.758;2023-02-28T07:10:09;2.00;99.90
17879;DHT22;9065;51.050;13.758;2023-02-28T07:12:39;2.10;99.90
17879;DHT22;9065;51.050;13.758;2023-02-28T07:17:54;2.00;99.90
17879;DHT22;9065;51.050;13.758;2023-02-28T07:20:23;2.10;99.90
17879;DHT22;9065;51.050;13.758;2023-02-28T07:23:03;2.30;99.90
17879;DHT22;9065;51.050;13.758;2023-02-28T07:25:50;2.60;99.90
17879;DHT22;9065;51.050;13.758;2023-02-28T07:28:41;2.80;99.90
17879;DHT22;9065;51.050;13.758;2023-02-28T07:32:02;2.90;99.90
17879;DHT22;9065;51.050;13.758;2023-02-28T07:34:42;2.80;99.90
17879;DHT22;9065;51.050;13.758;2023-02-28T07:37:11;2.90;99.90
17879;DHT22;9065;51.050;13.758;2023-02-28T07:39:46;3.00;99.90
17879;DHT22;9065;51.050;13.758;2023-02-28T07:42:18;3.10;99.90
17879;DHT22;9065;51.050;13.758;2023-02-28T07:45:01;3.20;99.90
17879;DHT22;9065;51.050;13.758;2023-02-28T07:47:33;3.30;99.90
17879;DHT22;9065;51.050;13.758;2023-02-28T07:50:02;3.20;99.90
17879;DHT22;9065;51.050;13.758;2023-02-28T07:52:29;3.40;99.90
17879;DHT22;9065;51.050;13.758;2023-02-28T07:55:12;3.80;99.90
17879;DHT22;9065;51.050;13.758;2023-02-28T07:57:43;4.00;99.90
17879;DHT22;9065;51.050;13.758;2023-02-28T08:00:17;4.10;99.90
17879;DHT22;9065;51.050;13.758;2023-02-28T08:02:46;4.20;99.90
17879;DHT22;9065;51.050;13.758;2023-02-28T08:05:14;4.20;99.90
17879;DHT22;9065;51.050;13.758;2023-02-28T08:07:43;5.00;99.90
17879;DHT22;9065;51.050;13.758;2023-02-28T08:10:30;6.60;99.90
17879;DHT22;9065;51.050;13.758;2023-02-28T08:12:57;8.50;99.90
17879;DHT22;9065;51.050;13.758;2023-02-28T08:15:26;9.80;99.90
17879;DHT22;9065;51.050;13.758;2023-02-28T08:18:00;9.90;99.90
17879;DHT22;9065;51.050;13.758;2023-02-28T08:20:44;9.80;99.90
17879;DHT22;9065;51.050;13.758;2023-02-28T08:23:28;9.80;99.90
17879;DHT22;9065;51.050;13.758;2023-02-28T08:26:07;9.10;99.90
17879;DHT22;9065;51.050;13.758;2023-02-28T08:28:51;8.40;99.90
17879;DHT22;9065;51.050;13.758;2023-02-28T08:31:20;7.90;99.90
17879;DHT22;9065;51.050;13.758;2023-02-28T08:33:49;7.30;99.90
17879;DHT22;9065;51.050;13.758;2023-02-28T08:36:20;6.80;99.90
17879;DHT22;9065;51.050;13.758;2023-02-28T08:38:49;6.40;99.90
17879;DHT22;9065;51.050;13.758;2023-02-28T08:41:16;6.20;99.90
17879;DHT22;9065;51.050;13.758;2023-02-28T08:43:54;6.10;99.90
17879;DHT22;9065;51.050;13.758;2023-02-28T08:46:40;5.70;99.90
17879;DHT22;9065;51.050;13.758;2023-02-28T08:49:13;5.80;99.90
17879;DHT22;9065;51.050;13.758;2023-02-28T08:51:43;5.70;99.90
17879;DHT22;9065;51.050;13.758;2023-02-28T08:54:21;6.00;99.90
17879;DHT22;9065;51.050;13.758;2023-02-28T08:56:51;6.10;99.90
17879;DHT22;9065;51.050;13.758;2023-02-28T08:59:24;6.00;99.90
17879;DHT22;9065;51.050;13.758;2023-02-28T09:02:12;6.10;99.90
17879;DHT22;9065;51.050;13.758;2023-02-28T09:04:42;6.40;99.90
17879;DHT22;9065;51.050;13.758;2023-02-28T09:07:12;6.70;99.90
17879;DHT22;9065;51.050;13.758;2023-02-28T09:09:40;6.90;99.90
17879;DHT22;9065;51.050;13.758;2023-02-28T09:12:19;7.20;99.90
17879;DHT22;9065;51.050;13.758;2023-02-28T09:14:46;7.30;99.90
17879;DHT22;9065;51.050;13.758;2023-02-28T09:17:18;7.10;99.90
17879;DHT22;9065;51.050;13.758;2023-02-28T09:19:49;7.10;99.90
17879;DHT22;9065;51.050;13.758;2023-02-28T09:22:19;7.10;99.90
17879;DHT22;9065;51.050;13.758;2023-02-28T09:24:49;7.60;99.90
17879;DHT22;9065;51.050;13.758;2023-02-28T09:27:18;8.00;99.90
17879;DHT22;9065;51.050;13.758;2023-02-28T09:29:51;8.00;99.90
17879;DHT22;9065;51.050;13.758;2023-02-28T09:36:03;8.40;99.90
17879;DHT22;9065;51.050;13.758;2023-02-28T09:38:40;9.80;99.90
17879;DHT22;9065;51.050;13.758;2023-02-28T09:41:20;10.90;99.90
17879;DHT22;9065;51.050;13.758;2023-02-28T09:43:59;12.00;99.90
17879;DHT22;9065;51.050;13.758;2023-02-28T09:46:40;11.60;99.90
17879;DHT22;9065;51.050;13.758;2023-02-28T09:49:19;11.30;99.90
17879;DHT22;9065;51.050;13.758;2023-02-28T09:51:55;10.70;99.90
17879;DHT22;9065;51.050;13.758;2023-02-28T09:54:28;10.30;99.90
17879;DHT22;9065;51.050;13.758;2023-02-28T09:57:10;10.10;99.90
17879;DHT22;9065;51.050;13.758;2023-02-28T09:59:51;10.10;99.90
17879;DHT22;9065;51.050;13.758;2023-02-28T10:05:25;10.40;99.90
17879;DHT22;9065;51.050;13.758;2023-02-28T10:08:02;11.90;99.90
17879;DHT22;9065;51.050;13.758;2023-02-28T10:10:36;13.80;99.90
17879;DHT22;9065;51.050;13.758;2023-02-28T10:13:14;14.60;99.90
17879;DHT22;9065;51.050;13.758;2023-02-28T10:15:45;13.20;99.40
17879;DHT22;9065;51.050;13.758;2023-02-28T10:18:42;12.80;99.50
17879;DHT22;9065;51.050;13.758;2023-02-28T10:21:35;11.20;99.90
17879;DHT22;9065;51.050;13.758;2023-02-28T10:24:48;11.10;99.90
17879;DHT22;9065;51.050;13.758;2023-02-28T10:28:10;8.80;99.90
17879;DHT22;9065;51.050;13.758;2023-02-28T10:31:00;7.80;99.90
17879;DHT22;9065;51.050;13.758;2023-02-28T10:33:51;6.60;99.90
17879;DHT22;9065;51.050;13.758;2023-02-28T10:36:25;6.00;99.90
17879;DHT22;9065;51.050;13.758;2023-02-28T10:43:04;6.40;99.90
17879;DHT22;9065;51.050;13.758;2023-02-28T10:45:52;6.80;99.90
17879;DHT22;9065;51.050;13.758;2023-02-28T10:49:05;6.80;99.90
17879;DHT22;9065;51.050;13.758;2023-02-28T10:51:52;7.00;99.90
17879;DHT22;9065;51.050;13.758;2023-02-28T10:58:00;7.70;99.90
17879;DHT22;9065;51.050;13.758;2023-02-28T11:00:54;8.70;99.90
17879;DHT22;9065;51.050;13.758;2023-02-28T11:03:29;7.70;99.90
17879;DHT22;9065;51.050;13.758;2023-02-28T11:06:25;7.20;99.90
17879;DHT22;9065;51.050;13.758;2023-02-28T11:09:18;7.90;99.90
17879;DHT22;9065;51.050;13.758;2023-02-28T11:11:48;12.40;99.90
17879;DHT22;9065;51.050;13.758;2023-02-28T11:14:46;16.50;99.20
17879;DHT22;9065;51.050;13.758;2023-02-28T11:21:26;21.00;80.60
17879;DHT22;9065;51.050;13.758;2023-02-28T11:24:20;23.20;73.50
17879;DHT22;9065;51.050;13.758;2023-02-28T11:27:11;23.30;69.80
17879;DHT22;9065;51.050;13.758;2023-02-28T11:30:37;20.40;71.00
17879;DHT22;9065;51.050;13.758;2023-02-28T11:33:57;17.10;75.60
17879;DHT22;9065;51.050;13.758;2023-02-28T11:36:49;16.20;78.80
17879;DHT22;9065;51.050;13.758;2023-02-28T11:40:14;17.40;76.60
17879;DHT22;9065;51.050;13.758;2023-02-28T11:50:33;8.70;97.30
17879;DHT22;9065;51.050;13.758;2023-02-28T12:07:25;6.80;99.90
17879;DHT22;9065;51.050;13.758;2023-02-28T12:10:30;6.90;99.90
17879;DHT22;9065;51.050;13.758;2023-02-28T12:13:10;6.70;99.90
17879;DHT22;9065;51.050;13.758;2023-02-28T12:16:22;6.40;99.90
17879;DHT22;9065;51.050;13.758;2023-02-28T12:19:07;6.20;99.90
17879;DHT22;9065;51.050;13.758;2023-02-28T12:21:56;6.00;99.90
17879;DHT22;9065;51.050;13.758;2023-02-28T12:24:58;5.90;99.90
17879;DHT22;9065;51.050;13.758;2023-02-28T12:27:29;6.30;99.90
17879;DHT22;9065;51.050;13.758;2023-02-28T12:30:16;6.10;99.90
17879;DHT22;9065;51.050;13.758;2023-02-28T12:32:46;5.90;99.90
17879;DHT22;9065;51.050;13.758;2023-02-28T12:35:22;5.80;99.90
17879;DHT22;9065;51.050;13.758;2023-02-28T12:37:55;5.80;99.90
17879;DHT22;9065;51.050;13.758;2023-02-28T12:44:17;6.00;99.90
17879;DHT22;9065;51.050;13.758;2023-02-28T12:47:09;6.20;99.90
17879;DHT22;9065;51.050;13.758;2023-02-28T12:49:53;6.30;99.90
17879;DHT22;9065;51.050;13.758;2023-02-28T12:52:37;6.30;99.90
17879;DHT22;9065;51.050;13.758;2023-02-28T12:55:21;6.30;99.90
17879;DHT22;9065;51.050;13.758;2023-02-28T12:58:08;6.50;99.90
17879;DHT22;9065;51.050;13.758;2023-02-28T13:07:12;5.90;99.90
17879;DHT22;9065;51.050;13.758;2023-02-28T13:10:04;6.10;99.90
17879;DHT22;9065;51.050;13.758;2023-02-28T13:12:36;6.10;99.90
17879;DHT22;9065;51.050;13.758;2023-02-28T13:15:20;6.00;99.90
17879;DHT22;9065;51.050;13.758;2023-02-28T13:21:26;5.90;99.90
17879;DHT22;9065;51.050;13.758;2023-02-28T13:24:11;5.90;99.90
17879;DHT22;9065;51.050;13.758;2023-02-28T13:33:28;5.60;99.90
17879;DHT22;9065;51.050;13.758;2023-02-28T13:36:25;5.60;99.90
17879;DHT22;9065;51.050;13.758;2023-02-28T13:39:02;5.60;99.90
17879;DHT22;9065;51.050;13.758;2023-02-28T13:41:46;5.60;99.90
17879;DHT22;9065;51.050;13.758;2023-02-28T13:44:20;5.60;99.90
17879;DHT22;9065;51.050;13.758;2023-02-28T13:47:24;5.70;99.90
17879;DHT22;9065;51.050;13.758;2023-02-28T13:50:22;5.80;99.90
17879;DHT22;9065;51.050;13.758;2023-02-28T13:53:02;5.80;99.90
17879;DHT22;9065;51.050;13.758;2023-02-28T13:55:37;5.80;99.90
17879;DHT22;9065;51.050;13.758;2023-02-28T14:01:33;5.80;99.90
17879;DHT22;9065;51.050;13.758;2023-02-28T14:04:28;5.70;99.90
17879;DHT22;9065;51.050;13.758;2023-02-28T14:07:02;5.80;99.90
17879;DHT22;9065;51.050;13.758;2023-02-28T14:09:33;5.70;99.90
17879;DHT22;9065;51.050;13.758;2023-02-28T14:15:02;5.80;99.90
17879;DHT22;9065;51.050;13.758;2023-02-28T14:17:32;5.70;99.90
17879;DHT22;9065;51.050;13.758;2023-02-28T14:20:02;5.40;99.90
17879;DHT22;9065;51.050;13.758;2023-02-28T14:22:50;5.20;99.90
17879;DHT22;9065;51.050;13.758;2023-02-28T14:25:23;5.00;99.90
17879;DHT22;9065;51.050;13.758;2023-02-28T14:28:08;4.80;99.90
17879;DHT22;9065;51.050;13.758;2023-02-28T14:30:48;4.70;99.90
17879;DHT22;9065;51.050;13.758;2023-02-28T14:33:27;4.70;99.90
17879;DHT22;9065;51.050;13.758;2023-02-28T14:36:06;4.90;99.90
17879;DHT22;9065;51.050;13.758;2023-02-28T14:38:38;5.10;99.90
17879;DHT22;9065;51.050;13.758;2023-02-28T14:41:22;5.20;99.90
17879;DHT22;9065;51.050;13.758;2023-02-28T14:43:55;5.40;99.90
17879;DHT22;9065;51.050;13.758;2023-02-28T14:46:26;5.30;99.90
17879;DHT22;9065;51.050;13.758;2023-02-28T14:48:55;5.10;99.90
17879;DHT22;9065;51.050;13.758;2023-02-28T14:51:23;5.00;99.90
17879;DHT22;9065;51.050;13.758;2023-02-28T14:53:56;4.80;99.90
17879;DHT22;9065;51.050;13.758;2023-02-28T14:56:26;4.70;99.90
17879;DHT22;9065;51.050;13.758;2023-02-28T14:58:54;4.80;99.90
17879;DHT22;9065;51.050;13.758;2023-02-28T15:01:23;4.80;99.90
17879;DHT22;9065;51.050;13.758;2023-02-28T15:03:59;4.90;99.90
17879;DHT22;9065;51.050;13.758;2023-02-28T15:06:27;4.90;99.90
17879;DHT22;9065;51.050;13.758;2023-02-28T15:09:17;5.00;99.90
17879;DHT22;9065;51.050;13.758;2023-02-28T15:11:47;5.00;99.90
17879;DHT22;9065;51.050;13.758;2023-02-28T15:14:19;5.20;99.90
17879;DHT22;9065;51.050;13.758;2023-02-28T15:16:51;5.20;99.90
17879;DHT22;9065;51.050;13.758;2023-02-28T15:19:21;5.00;99.90
17879;DHT22;9065;51.050;13.758;2023-02-28T15:21:54;5.10;99.90
17879;DHT22;9065;51.050;13.758;2023-02-28T15:24:30;5.20;99.90
17879;DHT22;9065;51.050;13.758;2023-02-28T15:27:04;5.30;99.90
17879;DHT22;9065;51.050;13.758;2023-02-28T15:29:37;5.20;99.90
17879;DHT22;9065;51.050;13.758;2023-02-28T15:32:23;5.00;99.90
17879;DHT22;9065;51.050;13.758;2023-02-28T15:35:18;4.80;99.90
17879;DHT22;9065;51.050;13.758;2023-02-28T15:37:47;4.60;99.90
17879;DHT22;9065;51.050;13.758;2023-02-28T15:40:17;4.60;99.90
17879;DHT22;9065;51.050;13.758;2023-02-28T15:43:00;4.60;99.90
17879;DHT22;9065;51.050;13.758;2023-02-28T15:45:34;4.80;99.90
17879;DHT22;9065;51.050;13.758;2023-02-28T15:48:15;4.80;99.90
17879;DHT22;9065;51.050;13.758;2023-02-28T15:50:42;4.70;99.90
17879;DHT22;9065;51.050;13.758;2023-02-28T15:53:15;4.60;99.90
17879;DHT22;9065;51.050;13.758;2023-02-28T15:55:43;4.50;99.90
17879;DHT22;9065;51.050;13.758;2023-02-28T15:58:11;4.50;99.90
17879;DHT22;9065;51.050;13.758;2023-02-28T16:00:39;4.50;99.90
17879;DHT22;9065;51.050;13.758;2023-02-28T16:03:24;4.40;99.90
17879;DHT22;9065;51.050;13.758;2023-02-28T16:06:26;4.40;99.90
17879;DHT22;9065;51.050;13.758;2023-02-28T16:08:55;4.40;99.90
17879;DHT22;9065;51.050;13.758;2023-02-28T16:11:24;4.40;99.90
17879;DHT22;9065;51.050;13.758;2023-02-28T16:13:52;4.30;99.90
17879;DHT22;9065;51.050;13.758;2023-02-28T16:16:21;4.30;99.90
17879;DHT22;9065;51.050;13.758;2023-02-28T16:18:49;4.30;99.90
17879;DHT22;9065;51.050;13.758;2023-02-28T16:21:16;4.30;99.90
17879;DHT22;9065;51.050;13.758;2023-02-28T16:23:43;4.30;99.90
17879;DHT22;9065;51.050;13.758;2023-02-28T16:26:16;4.30;99.90
17879;DHT22;9065;51.050;13.758;2023-02-28T16:28:46;4.30;99.90
17879;DHT22;9065;51.050;13.758;2023-02-28T16:31:13;4.30;99.90
17879;DHT22;9065;51.050;13.758;2023-02-28T16:33:42;4.30;99.90
17879;DHT22;9065;51.050;13.758;2023-02-28T16:36:13;4.30;99.90
17879;DHT22;9065;51.050;13.758;2023-02-28T16:38:40;4.30;99.90
17879;DHT22;9065;51.050;13.758;2023-02-28T16:41:07;4.30;99.90
17879;DHT22;9065;51.050;13.758;2023-02-28T16:43:42;4.30;99.90
17879;DHT22;9065;51.050;13.758;2023-02-28T16:46:12;4.30;99.90
17879;DHT22;9065;51.050;13.758;2023-02-28T16:48:42;4.40;99.90
17879;DHT22;9065;51.050;13.758;2023-02-28T16:51:12;4.40;99.90
17879;DHT22;9065;51.050;13.758;2023-02-28T16:53:39;4.40;99.90
17879;DHT22;9065;51.050;13.758;2023-02-28T16:56:08;4.30;99.90
17879;DHT22;9065;51.050;13.758;2023-02-28T16:58:39;4.30;99.90
17879;DHT22;9065;51.050;13.758;2023-02-28T17:01:08;4.30;99.90
17879;DHT22;9065;51.050;13.758;2023-02-28T17:03:36;4.20;99.90
17879;DHT22;9065;51.050;13.758;2023-02-28T17:06:04;4.20;99.90
17879;DHT22;9065;51.050;13.758;2023-02-28T17:08:31;4.20;99.90
17879;DHT22;9065;51.050;13.758;2023-02-28T17:10:58;4.20;99.90
17879;DHT22;9065;51.050;13.758;2023-02-28T17:13:25;4.10;99.90
17879;DHT22;9065;51.050;13.758;2023-02-28T17:15:52;4.10;99.90
17879;DHT22;9065;51.050;13.758;2023-02-28T17:18:19;4.10;99.90
17879;DHT22;9065;51.050;13.758;2023-02-28T17:20:49;4.20;99.90
17879;DHT22;9065;51.050;13.758;2023-02-28T17:23:15;4.10;99.90
17879;DHT22;9065;51.050;13.758;2023-02-28T17:25:42;4.20;99.90
17879;DHT22;9065;51.050;13.758;2023-02-28T17:28:18;4.10;99.90
17879;DHT22;9065;51.050;13.758;2023-02-28T17:30:45;4.10;99.90
17879;DHT22;9065;51.050;13.758;2023-02-28T17:33:15;4.10;99.90
17879;DHT22;9065;51.050;13.758;2023-02-28T17:35:42;4.00;99.90
17879;DHT22;9065;51.050;13.758;2023-02-28T17:38:16;4.00;99.90
17879;DHT22;9065;51.050;13.758;2023-02-28T17:40:43;4.00;99.90
17879;DHT22;9065;51.050;13.758;2023-02-28T17:43:10;4.00;99.90
17879;DHT22;9065;51.050;13.758;2023-02-28T17:45:37;3.90;99.90